Terminal Aerodrome Forecast
Issued by NWS Blacksburg, VA

Home | Current Version | Previous Version | Text Only | Print | Product List | Glossary On
Versions: 1 2 3 4 5 6 7 8 9 10 11 12
000
FTUS41 KRNK 221725
TAFROA
TAF
KROA 221725Z 2218/2318 00000KT P6SM -RA BKN045 OVC080
      TEMPO 2218/2220 OVC015
     FM230800 00000KT 3SM BR BKN045
     FM231300 00000KT P6SM BKN040
     FM231500 VRB03KT P6SM SCT060=

USA.gov is the U.S. government's official web portal to all federal, state and local government web resources and services.